createdAt,value
2023-03-04T00:01:55.422Z,6.57
2023-03-04T00:06:58.030Z,9.80
2023-03-04T00:12:00.854Z,10.53
2023-03-04T00:17:04.507Z,10.47
2023-03-04T00:22:07.208Z,14.90
2023-03-04T00:27:09.777Z,4.93
2023-03-04T00:32:12.919Z,15.37
2023-03-04T00:37:15.731Z,11.80
2023-03-04T00:42:19.174Z,12.60
2023-03-04T00:47:25.270Z,11.17
2023-03-04T00:52:29.148Z,9.70
2023-03-04T00:57:31.662Z,13.83
2023-03-04T01:02:34.177Z,16.10
2023-03-04T01:07:37.558Z,14.50
2023-03-04T01:12:43.046Z,12.17
2023-03-04T01:17:46.113Z,7.93
2023-03-04T01:22:48.723Z,9.60
2023-03-04T01:27:51.316Z,6.00
2023-03-04T01:32:55.350Z,11.97
2023-03-04T01:37:57.783Z,9.00
2023-03-04T01:43:00.304Z,10.03
2023-03-04T01:48:02.946Z,5.33
2023-03-04T01:53:05.492Z,6.27
2023-03-04T01:58:10.581Z,4.27
2023-03-04T02:03:19.593Z,6.30
2023-03-04T02:08:24.428Z,6.27
2023-03-04T02:13:27.147Z,5.27
2023-03-04T02:18:29.666Z,6.53
2023-03-04T02:23:41.609Z,9.50
2023-03-04T02:28:45.392Z,3.13
2023-03-04T02:33:48.049Z,6.77
2023-03-04T02:38:52.530Z,8.87
2023-03-04T02:43:56.771Z,7.13
2023-03-04T02:48:59.714Z,3.50
2023-03-04T02:54:04.382Z,7.63
2023-03-04T02:59:07.182Z,8.23
2023-03-04T03:04:09.974Z,5.50
2023-03-04T03:09:13.008Z,10.00
2023-03-04T03:14:15.990Z,12.40
2023-03-04T03:19:19.126Z,7.40
2023-03-04T03:24:22.208Z,8.40
2023-03-04T03:29:25.634Z,3.77
2023-03-04T03:34:28.917Z,7.37
2023-03-04T03:39:31.704Z,6.33
2023-03-04T03:44:34.353Z,5.17
2023-03-04T03:49:36.929Z,7.27
2023-03-04T03:54:39.604Z,7.30
2023-03-04T03:59:42.152Z,9.90
2023-03-04T04:04:44.706Z,8.60
2023-03-04T04:09:48.343Z,5.57
2023-03-04T04:14:50.842Z,2.57
2023-03-04T04:19:53.308Z,9.27
2023-03-04T04:24:55.951Z,6.77
2023-03-04T04:29:58.704Z,8.07
2023-03-04T04:35:01.389Z,9.87
2023-03-04T04:40:04.928Z,7.93
2023-03-04T04:45:08.231Z,8.47
2023-03-04T04:50:11.188Z,6.63
2023-03-04T04:55:13.704Z,7.23
2023-03-04T05:00:19.059Z,9.47
2023-03-04T05:05:21.669Z,6.93
2023-03-04T05:10:24.546Z,6.53
2023-03-04T05:15:27.092Z,5.17
2023-03-04T05:20:29.566Z,9.07
2023-03-04T05:25:32.138Z,4.60
2023-03-04T05:30:35.141Z,7.13
2023-03-04T05:35:39.210Z,8.43
2023-03-04T05:40:42.857Z,7.73
2023-03-04T05:45:45.364Z,7.60
2023-03-04T05:50:48.104Z,6.40
2023-03-04T05:55:51.346Z,5.97
2023-03-04T06:00:54.681Z,8.40
2023-03-04T06:05:57.579Z,3.93
2023-03-04T06:11:00.106Z,7.57
2023-03-04T06:16:02.745Z,7.43
2023-03-04T06:21:05.504Z,4.67
2023-03-04T06:26:12.174Z,4.73
2023-03-04T06:31:14.752Z,11.10
2023-03-04T06:36:17.502Z,7.70
2023-03-04T06:41:20.138Z,4.23
2023-03-04T06:46:22.885Z,2.83
2023-03-04T06:51:25.406Z,6.53
2023-03-04T06:56:27.960Z,5.93
2023-03-04T07:01:30.494Z,5.17
2023-03-04T07:06:33.033Z,4.83
2023-03-04T07:11:35.784Z,2.60
2023-03-04T07:16:38.734Z,3.63
2023-03-04T07:21:41.327Z,4.37
2023-03-04T07:26:43.822Z,4.03
2023-03-04T07:31:46.427Z,7.87
2023-03-04T07:36:49.196Z,4.93
2023-03-04T07:41:51.683Z,3.17
2023-03-04T07:46:54.157Z,5.03
2023-03-04T07:51:56.664Z,3.33
2023-03-04T07:56:59.221Z,8.00
2023-03-04T08:02:01.787Z,5.47
2023-03-04T08:07:04.238Z,6.13
2023-03-04T08:12:06.974Z,3.03
2023-03-04T08:17:10.038Z,6.10
2023-03-04T08:22:13.161Z,5.67
2023-03-04T08:27:15.798Z,6.23
2023-03-04T08:32:18.499Z,6.90
2023-03-04T08:37:21.142Z,4.80
2023-03-04T08:42:24.310Z,5.50
2023-03-04T08:47:26.823Z,4.27
2023-03-04T08:52:30.533Z,6.93
2023-03-04T08:57:33.037Z,3.20
2023-03-04T09:02:35.617Z,8.50
2023-03-04T09:07:38.239Z,2.37
2023-03-04T09:12:40.882Z,10.43
2023-03-04T09:17:43.586Z,3.10
2023-03-04T09:22:46.110Z,7.33
2023-03-04T09:27:48.610Z,2.13
2023-03-04T09:32:51.336Z,5.03
2023-03-04T09:37:54.332Z,3.10
2023-03-04T09:43:03.528Z,8.70
2023-03-04T09:48:07.138Z,2.13
2023-03-04T09:53:33.515Z,5.40
2023-03-04T09:58:44.764Z,4.47
2023-03-04T10:03:53.300Z,3.23
2023-03-04T10:09:06.066Z,2.77
2023-03-04T10:14:23.483Z,2.70
2023-03-04T10:19:32.083Z,6.80
2023-03-04T10:24:35.783Z,4.70
2023-03-04T10:29:38.474Z,3.43
2023-03-04T10:34:40.981Z,2.50
2023-03-04T10:39:46.304Z,5.37
2023-03-04T10:44:59.305Z,1.97
2023-03-04T10:50:05.361Z,3.57
2023-03-04T10:55:21.138Z,4.27
2023-03-04T11:00:26.574Z,1.53
2023-03-04T11:05:32.705Z,1.77
2023-03-04T11:10:38.259Z,2.10
2023-03-04T11:16:31.118Z,3.67
2023-03-04T11:21:40.263Z,4.20
2023-03-04T11:26:59.698Z,5.23
2023-03-04T11:32:23.836Z,5.93
2023-03-04T11:37:30.050Z,3.60
2023-03-04T11:42:44.208Z,2.83
2023-03-04T11:48:16.737Z,4.10
2023-03-04T11:53:53.986Z,3.53
2023-03-04T11:59:40.646Z,5.00
2023-03-04T12:05:11.071Z,4.00
2023-03-04T12:10:25.062Z,4.30
2023-03-04T12:15:44.301Z,4.03
2023-03-04T12:21:07.101Z,5.10
2023-03-04T12:26:28.106Z,2.67
2023-03-04T12:31:41.632Z,2.80
2023-03-04T12:36:50.437Z,4.60
2023-03-04T12:42:10.938Z,10.33
2023-03-04T12:47:37.741Z,2.80
2023-03-04T12:53:10.422Z,4.90
2023-03-04T12:58:21.231Z,4.87
2023-03-04T13:03:29.804Z,8.30
2023-03-04T13:08:50.632Z,4.43
2023-03-04T13:14:03.112Z,8.77
2023-03-04T13:19:44.441Z,79.87
2023-03-04T13:24:51.007Z,166.23
2023-03-04T13:29:53.591Z,15.33
2023-03-04T13:34:56.281Z,23.13
2023-03-04T13:40:23.345Z,14.67
2023-03-04T13:45:52.047Z,14.83
2023-03-04T13:50:54.756Z,11.70
2023-03-04T13:56:21.001Z,17.20
2023-03-04T14:01:33.829Z,37.80
2023-03-04T14:06:42.661Z,13.90
2023-03-04T14:11:45.333Z,13.13
2023-03-04T14:16:54.459Z,10.87
2023-03-04T14:21:57.624Z,10.97
2023-03-04T14:27:14.288Z,9.37
2023-03-04T14:32:16.935Z,10.67
2023-03-04T14:37:25.823Z,12.27
2023-03-04T14:42:39.561Z,10.30
2023-03-04T14:47:46.174Z,26.60
2023-03-04T14:52:53.204Z,8.10
2023-03-04T14:58:08.787Z,7.80
2023-03-04T15:03:32.209Z,11.77
2023-03-04T15:08:40.513Z,12.17
2023-03-04T15:13:44.380Z,18.13
2023-03-04T15:19:02.191Z,11.07
2023-03-04T15:24:06.237Z,10.13
2023-03-04T15:29:17.397Z,11.13
2023-03-04T15:34:21.079Z,6.83
2023-03-04T15:39:23.629Z,3.83
2023-03-04T15:44:26.162Z,8.87
2023-03-04T15:49:29.898Z,5.77
2023-03-04T15:54:33.015Z,5.40
2023-03-04T15:59:35.491Z,8.87
2023-03-04T16:04:39.194Z,7.87
2023-03-04T16:09:41.759Z,9.77
2023-03-04T16:14:46.904Z,6.90
2023-03-04T16:19:49.489Z,7.13
2023-03-04T16:24:54.807Z,11.70
2023-03-04T16:29:57.389Z,8.83
2023-03-04T16:34:59.924Z,9.17
2023-03-04T16:40:04.619Z,7.97
2023-03-04T16:45:08.835Z,7.17
2023-03-04T16:50:14.661Z,141.23
2023-03-04T16:55:28.930Z,71.93
2023-03-04T17:00:31.480Z,28.13
2023-03-04T17:05:34.155Z,43.53
2023-03-04T17:10:36.719Z,33.60
2023-03-04T17:15:41.038Z,25.67
2023-03-04T17:20:43.951Z,31.67
2023-03-04T17:25:46.509Z,11.40
2023-03-04T17:30:56.410Z,11.96
2023-03-04T17:35:58.898Z,14.17
2023-03-04T17:41:05.500Z,21.20
2023-03-04T17:46:12.259Z,36.47
2023-03-04T17:51:15.086Z,27.80
2023-03-04T17:56:17.636Z,30.97
2023-03-04T18:01:21.193Z,27.10
2023-03-04T18:06:25.352Z,16.13
2023-03-04T18:11:28.481Z,10.10
2023-03-04T18:16:31.318Z,8.50
2023-03-04T18:21:33.933Z,10.00
2023-03-04T18:26:36.612Z,6.97
2023-03-04T18:31:39.232Z,10.37
2023-03-04T18:36:42.397Z,9.00
2023-03-04T18:41:44.978Z,41.97
2023-03-04T18:46:56.338Z,35.60
2023-03-04T18:51:59.302Z,16.57
2023-03-04T18:57:07.995Z,11.83
2023-03-04T19:02:22.464Z,17.97
2023-03-04T19:07:26.448Z,9.03
2023-03-04T19:12:29.091Z,9.87
2023-03-04T19:17:32.972Z,14.93
2023-03-04T19:22:36.160Z,15.00
2023-03-04T19:27:38.634Z,13.80
2023-03-04T19:32:41.114Z,16.63
2023-03-04T19:37:43.606Z,17.93
2023-03-04T19:42:46.035Z,17.13
2023-03-04T19:47:48.632Z,15.27
2023-03-04T19:52:51.830Z,17.47
2023-03-04T19:57:54.232Z,21.63
2023-03-04T20:02:56.728Z,13.67
2023-03-04T20:08:00.597Z,27.77
2023-03-04T20:13:05.602Z,36.80
2023-03-04T20:18:08.134Z,36.20
2023-03-04T20:23:10.629Z,38.70
2023-03-04T20:28:13.202Z,49.83
2023-03-04T20:33:15.809Z,51.37
2023-03-04T21:30:50.736Z,71.20
2023-03-04T21:35:53.294Z,70.27
2023-03-04T21:40:56.553Z,65.23
2023-03-04T21:45:59.136Z,66.20
2023-03-04T21:51:06.934Z,61.63
2023-03-04T21:56:11.449Z,73.17
2023-03-04T22:01:16.574Z,54.53
2023-03-04T22:06:22.214Z,20.50
2023-03-04T22:11:25.483Z,26.27
2023-03-04T22:16:29.230Z,48.70
2023-03-04T22:21:31.915Z,36.30
2023-03-04T22:26:35.339Z,43.00
2023-03-04T22:31:38.765Z,32.97
2023-03-04T22:36:44.204Z,43.60
2023-03-04T22:41:47.201Z,31.13
2023-03-04T22:46:49.629Z,30.10
2023-03-04T22:51:52.238Z,26.93
2023-03-04T22:56:54.789Z,24.90
2023-03-04T23:01:57.295Z,24.93
2023-03-04T23:07:00.025Z,23.70
2023-03-04T23:12:02.654Z,23.50
2023-03-04T23:17:05.280Z,20.07
2023-03-04T23:22:07.797Z,22.27
2023-03-04T23:27:10.368Z,21.10
2023-03-04T23:32:12.992Z,15.30
2023-03-04T23:37:15.635Z,20.53
2023-03-04T23:42:18.402Z,18.83
2023-03-04T23:47:20.968Z,17.87
2023-03-04T23:52:23.502Z,17.87
2023-03-04T23:57:26.083Z,19.77
